Pagina principale
METAR-TAF:

METAR-TAF

Aeroporti :

Riga, Lettonia

Aeroporto Internazionale di Riga

latitudine: 56-55N, longitudine: 023-58E, altezza: 10 m

Osservazione

Il bollettino è stato emesso 11 minuti fa, alle 13:50 UTC
Vento 11 kt da nord
Temperature -9°C
Umidità 79%
Pressione 1033 hPa
Visibilità 10 km o più
Nubi sparse ad un'altezza di 2100 ft

METAR: EVRA 241350Z 01011KT 9999 SCT021 M09/M12 Q1033 R36/490195 NOSIG

Ora: 16:01 (14:01 UTC)

Previsione

Il bollettino è stato emesso 2 ore e 59 minuti fa, alle 11:02 UTC
Previsione valida dal 24 alle 12 UTC al 25 alle 12 UTC
Vento 7 kt da nord/nord-est
Visibilità 10 km o più
Nubi sparse ad un'altezza di 2000 ft
Temporaneamente
dal 25 alle 00 UTC al 25 alle 09 UTC
Nuvoloso ad un'altezza di 1000 ft

TAF: EVRA 241102Z 2412/2512 02007KT 9999 SCT020 TEMPO 2500/2509 BKN010

Osservazioni e previsioni meteorologiche di più di 4000 aeroporti (messaggi METAR e TAF).

Le stazioni disponibili sono rappresentate dai dischi gialli e rossi sulla carta.

Puntare il mouse per vedere il nome della stazione.

Clicca sopra per visualizzare le osservazioni e previsioni meteorologiche.

Per cambiare la mappa : fare clic sui pulsanti verdi con una croce nera per ingrandire, il pulsante verde con un trattino per diminuire, o sulla freccia verde per le mappe adiacenti.


METAR-TAF: